Accueil
METAR-TAF:

METAR-TAF

Aéroports :

Buochs, Suisse

latitude: 46-58-28N, longitude: 8-23-49E, altitude: 449 m

Observation

Le bulletin a été fait il y a 14 minutes, à 17:20 UTC
Vent 4 kt de est
Température 20°C
Humidité 78%
Pression 1016 hPa
Visibilité 10 km ou plus
Ciel couvert à une hauteur de 5000 ft

METAR: LSZC 281720Z AUTO 08004KT 9999 OVC050 20/16 Q1016

Heure: 19:34 (17:34 UTC)

Prévision

Le bulletin a été fait il y a 3 heures et 9 minutes, à 14:25 UTC
Prévision valable du 28 à 15 UTC au 28 à 24 UTC
Vent 5 kt de est/nord-est
Visibilité 10 km ou plus
Quelques nuages à une hauteur de 2000 ft
Nuages fragmentés à une hauteur de 6000 ft

TAF: LSZC 281425Z 2815/2824 06005KT 9999 FEW020 BKN060

Observations et prévisions météorologiques de plus de 4000 aéroports (messages METAR et TAF).

Les stations disponibles sont représentées par des disques jaunes et rouges sur la carte.

Passer la souris dessus pour voir le nom de la station.

Cliquer dessus pour voir les observations et prévisions météorologiques.

Pour changer de carte: cliquez sur les boutons verts avec une croix noire pour zoomer, sur le bouton vert avec un tiret pour effectuer un zoom arrière, ou sur les flèches vertes pour les cartes adjacentes.


METAR-TAF: